Time;durP1;ratioP1;P1;durP2;ratioP2;P2;SDS_P1;SDS_P2;PMS_P1;PMS_P2;Temp;Humidity;BMP_temperature;BMP_pressure;BME280_temperature;BME280_humidity;BME280_pressure;Samples;Min_cycle;Max_cycle;Signal;HPM_P1;HPM_P2
2021/05/30 00:01:13;;;;;;;4.53;3.27;;;14.00;99.90;;;;;;4987435;28;20289;-81
2021/05/30 00:03:42;;;;;;;4.53;2.77;;;13.90;99.90;;;;;;4986985;28;20586;-79
2021/05/30 00:06:08;;;;;;;3.60;3.30;;;13.90;99.90;;;;;;4986688;28;20579;-79
2021/05/30 00:08:35;;;;;;;3.87;3.37;;;13.80;99.90;;;;;;4986938;28;20245;-79
2021/05/30 00:11:02;;;;;;;3.37;3.17;;;13.80;99.90;;;;;;4986624;28;20222;-79
2021/05/30 00:13:28;;;;;;;7.27;3.80;;;13.80;99.90;;;;;;4987063;28;20502;-80
2021/05/30 00:15:54;;;;;;;4.20;3.80;;;13.80;99.90;;;;;;4987083;28;20809;-80
2021/05/30 00:18:20;;;;;;;4.97;3.53;;;13.70;99.90;;;;;;4987177;28;20241;-80
2021/05/30 00:20:46;;;;;;;3.90;3.60;;;13.70;99.90;;;;;;4986973;28;20210;-79
2021/05/30 00:23:12;;;;;;;4.20;3.80;;;13.70;99.90;;;;;;4989551;28;20225;-80
2021/05/30 00:25:40;;;;;;;3.97;3.57;;;13.70;99.90;;;;;;5006638;28;20213;-80
2021/05/30 00:28:06;;;;;;;4.30;3.90;;;13.60;99.90;;;;;;4997631;28;20217;-80
2021/05/30 00:30:33;;;;;;;4.47;4.07;;;13.60;99.90;;;;;;5006660;28;20270;-82
2021/05/30 00:32:59;;;;;;;4.87;4.40;;;13.50;99.90;;;;;;5006201;28;20244;-82
2021/05/30 00:35:25;;;;;;;4.80;4.40;;;13.50;99.90;;;;;;5007315;28;20205;-81
2021/05/30 00:37:51;;;;;;;4.83;4.43;;;13.50;99.90;;;;;;5006650;28;20754;-83
2021/05/30 00:40:18;;;;;;;4.60;4.30;;;13.40;99.90;;;;;;5006879;28;20266;-82
2021/05/30 00:42:45;;;;;;;5.60;5.00;;;13.30;99.90;;;;;;5006807;28;20209;-82
2021/05/30 00:45:12;;;;;;;6.00;4.60;;;13.30;99.90;;;;;;5007041;28;20575;-83
2021/05/30 00:47:39;;;;;;;5.13;4.50;;;13.30;99.90;;;;;;5007093;28;20260;-83
2021/05/30 00:50:07;;;;;;;5.33;4.83;;;13.30;99.90;;;;;;5006864;28;20979;-83
2021/05/30 00:52:33;;;;;;;4.73;4.30;;;13.20;99.90;;;;;;5006912;28;20241;-83
2021/05/30 00:55:01;;;;;;;4.90;4.53;;;13.20;99.90;;;;;;5006058;28;20209;-83
2021/05/30 00:57:28;;;;;;;4.87;4.47;;;13.20;99.90;;;;;;5006921;28;20235;-83
2021/05/30 00:59:55;;;;;;;4.97;4.47;;;13.20;99.90;;;;;;5006700;28;20205;-83
2021/05/30 01:02:21;;;;;;;4.70;4.30;;;13.20;99.90;;;;;;5006822;28;20208;-83
2021/05/30 01:04:48;;;;;;;4.50;4.20;;;13.20;99.90;;;;;;5006659;28;20212;-82
2021/05/30 01:07:16;;;;;;;7.07;4.73;;;13.20;99.90;;;;;;5005985;28;20249;-81
2021/05/30 01:09:43;;;;;;;5.20;4.47;;;12.90;99.90;;;;;;5005819;28;20236;-82
2021/05/30 01:12:09;;;;;;;5.30;4.80;;;12.90;99.90;;;;;;5005798;28;20239;-81
2021/05/30 01:14:36;;;;;;;5.07;4.60;;;12.80;99.90;;;;;;4996290;28;20210;-82
2021/05/30 01:17:05;;;;;;;4.73;4.33;;;12.70;99.90;;;;;;4986310;28;20210;-82
2021/05/30 01:19:34;;;;;;;4.60;4.20;;;12.70;99.90;;;;;;4986784;28;20573;-82
2021/05/30 01:22:00;;;;;;;5.87;4.57;;;12.70;99.90;;;;;;4986593;28;20590;-83
2021/05/30 01:24:27;;;;;;;4.43;4.03;;;12.70;99.90;;;;;;4986394;28;20238;-83
2021/05/30 01:26:54;;;;;;;5.00;4.10;;;12.70;99.90;;;;;;4986441;28;20222;-83
2021/05/30 01:29:20;;;;;;;5.60;4.10;;;12.70;99.90;;;;;;4988306;28;20247;-82
2021/05/30 01:31:46;;;;;;;6.43;3.83;;;12.70;99.90;;;;;;4989577;28;20272;-82
2021/05/30 01:34:12;;;;;;;3.90;3.60;;;12.80;99.90;;;;;;4990105;28;20206;-83
2021/05/30 01:36:38;;;;;;;4.33;3.93;;;12.80;99.90;;;;;;4990753;28;20696;-83
2021/05/30 01:39:05;;;;;;;4.20;3.90;;;12.80;99.90;;;;;;4990515;28;20218;-83
2021/05/30 01:41:32;;;;;;;5.37;3.63;;;12.80;99.90;;;;;;4990318;28;20218;-83
2021/05/30 01:43:58;;;;;;;4.37;4.00;;;12.70;99.90;;;;;;4990123;28;20322;-81
2021/05/30 01:46:25;;;;;;;4.07;3.63;;;12.70;99.90;;;;;;4990175;28;20242;-79
2021/05/30 01:48:51;;;;;;;4.07;3.77;;;12.70;99.90;;;;;;4989337;28;20577;-80
2021/05/30 01:51:18;;;;;;;5.27;3.30;;;12.70;99.90;;;;;;4988628;28;20210;-79
2021/05/30 01:53:49;;;;;;;3.60;3.40;;;12.70;99.90;;;;;;4988676;28;20249;-80
2021/05/30 01:59:04;;;;;;;3.87;3.57;;;12.60;99.90;;;;;;4988398;28;20232;-79
2021/05/30 02:01:32;;;;;;;3.97;3.50;;;12.60;99.90;;;;;;4988854;28;20203;-80
2021/05/30 02:03:58;;;;;;;4.00;3.30;;;12.50;99.90;;;;;;4988489;28;20573;-79
2021/05/30 02:06:26;;;;;;;4.23;3.63;;;12.50;99.90;;;;;;4988462;28;20206;-80
2021/05/30 02:08:54;;;;;;;4.30;3.40;;;12.50;99.90;;;;;;4988687;28;20206;-80
2021/05/30 02:11:20;;;;;;;3.77;3.57;;;12.50;99.90;;;;;;4988661;28;20226;-79
2021/05/30 02:13:46;;;;;;;4.00;3.67;;;12.40;99.90;;;;;;4988682;28;20222;-79
2021/05/30 02:16:13;;;;;;;3.83;3.50;;;12.40;99.90;;;;;;4988739;28;20217;-80
2021/05/30 02:18:39;;;;;;;4.70;3.60;;;12.40;99.90;;;;;;4988781;28;20255;-79
2021/05/30 02:21:05;;;;;;;3.40;3.20;;;12.40;99.90;;;;;;4988559;28;20263;-78
2021/05/30 02:23:32;;;;;;;4.17;3.30;;;12.40;99.90;;;;;;4988562;28;20216;-79
2021/05/30 02:25:58;;;;;;;3.50;3.30;;;12.40;99.90;;;;;;4988570;28;20206;-80
2021/05/30 02:28:24;;;;;;;3.80;3.50;;;12.40;99.90;;;;;;4988143;28;20678;-79
2021/05/30 02:30:50;;;;;;;3.30;3.10;;;12.40;99.90;;;;;;4988386;28;20214;-80
2021/05/30 02:33:17;;;;;;;3.93;3.63;;;12.40;99.90;;;;;;4988520;28;20241;-80
2021/05/30 02:35:43;;;;;;;5.50;3.73;;;12.40;99.90;;;;;;4988509;28;20218;-80
2021/05/30 02:38:09;;;;;;;3.43;3.20;;;12.30;99.90;;;;;;4988376;28;20642;-80
2021/05/30 02:40:35;;;;;;;5.13;3.60;;;12.30;99.90;;;;;;4988030;28;20210;-80
2021/05/30 02:43:01;;;;;;;4.13;3.80;;;12.30;99.90;;;;;;4988232;28;20350;-84
2021/05/30 02:45:28;;;;;;;4.40;4.00;;;12.30;99.90;;;;;;4988462;28;20260;-81
2021/05/30 02:47:54;;;;;;;5.37;3.97;;;12.30;99.90;;;;;;4988368;28;20242;-81
2021/05/30 02:50:21;;;;;;;5.00;4.20;;;12.30;99.90;;;;;;4988337;28;20207;-81
2021/05/30 02:52:48;;;;;;;3.80;3.50;;;12.20;99.90;;;;;;4988193;28;20295;-81
2021/05/30 02:55:14;;;;;;;3.40;3.20;;;12.30;99.90;;;;;;4988189;28;20267;-81
2021/05/30 02:57:40;;;;;;;3.83;3.53;;;12.20;99.90;;;;;;4988277;28;20206;-81
2021/05/30 03:00:08;;;;;;;4.07;3.67;;;12.20;99.90;;;;;;4988018;28;20250;-81
2021/05/30 03:02:34;;;;;;;4.00;3.57;;;12.20;99.90;;;;;;4987769;28;20617;-81
2021/05/30 03:05:01;;;;;;;3.97;3.53;;;12.10;99.90;;;;;;4987918;28;20214;-81
2021/05/30 03:07:28;;;;;;;4.20;3.87;;;12.10;99.90;;;;;;4988126;28;20267;-81
2021/05/30 03:09:55;;;;;;;4.23;3.90;;;12.00;99.90;;;;;;4987791;28;20287;-81
2021/05/30 03:12:21;;;;;;;3.73;3.43;;;12.00;99.90;;;;;;4987844;28;20277;-81
2021/05/30 03:14:47;;;;;;;4.10;3.80;;;12.00;99.90;;;;;;4987553;28;20680;-82
2021/05/30 03:17:14;;;;;;;5.27;3.90;;;11.90;99.90;;;;;;4987907;28;20231;-82
2021/05/30 03:19:40;;;;;;;5.00;3.73;;;11.90;99.90;;;;;;4987792;28;20214;-82
2021/05/30 03:22:06;;;;;;;4.33;4.00;;;11.90;99.90;;;;;;4987450;28;20944;-80
2021/05/30 03:24:33;;;;;;;3.90;3.60;;;11.90;99.90;;;;;;4987673;28;20210;-81
2021/05/30 03:26:59;;;;;;;3.77;3.50;;;11.90;99.90;;;;;;4987577;28;20251;-81
2021/05/30 03:29:26;;;;;;;4.37;4.00;;;11.90;99.90;;;;;;4987738;28;20210;-80
2021/05/30 03:31:52;;;;;;;4.40;4.00;;;11.90;99.90;;;;;;4987364;28;20261;-80
2021/05/30 03:34:18;;;;;;;4.53;4.07;;;11.90;99.90;;;;;;4987755;28;20220;-79
2021/05/30 03:36:47;;;;;;;4.67;4.27;;;11.90;99.90;;;;;;4987525;28;20230;-78
2021/05/30 03:39:14;;;;;;;4.47;4.07;;;11.90;99.90;;;;;;4987268;28;20591;-78
2021/05/30 03:41:43;;;;;;;4.80;4.37;;;11.90;99.90;;;;;;4987126;28;20677;-78
2021/05/30 03:44:10;;;;;;;5.10;4.40;;;11.90;99.90;;;;;;4986917;28;20238;-79
2021/05/30 03:46:37;;;;;;;3.93;3.60;;;11.90;99.90;;;;;;4987471;28;20213;-79
2021/05/30 03:49:04;;;;;;;6.30;4.50;;;11.90;99.90;;;;;;4987326;28;20217;-78
2021/05/30 03:51:30;;;;;;;4.43;4.07;;;11.90;99.90;;;;;;4986351;28;20210;-79
2021/05/30 03:53:56;;;;;;;4.43;4.10;;;11.90;99.90;;;;;;4987154;28;20209;-77
2021/05/30 03:56:23;;;;;;;4.40;4.10;;;11.90;99.90;;;;;;4987339;28;20206;-78
2021/05/30 03:58:51;;;;;;;5.30;4.77;;;11.90;99.90;;;;;;4986853;28;20681;-80
2021/05/30 04:01:17;;;;;;;5.80;4.23;;;11.90;99.90;;;;;;4987456;28;20220;-80
2021/05/30 04:03:43;;;;;;;4.73;4.20;;;11.90;99.90;;;;;;4987312;28;20206;-80
2021/05/30 04:06:09;;;;;;;4.07;3.80;;;11.90;99.90;;;;;;4986963;28;20206;-80
2021/05/30 04:08:35;;;;;;;4.67;4.10;;;11.90;99.90;;;;;;4987263;28;20217;-80
2021/05/30 04:11:02;;;;;;;4.30;3.93;;;11.90;99.90;;;;;;4988176;28;20233;-84
2021/05/30 04:13:28;;;;;;;4.73;4.10;;;11.90;99.90;;;;;;4988210;28;20275;-83
2021/05/30 04:15:55;;;;;;;4.40;4.00;;;11.90;99.90;;;;;;4987852;28;20214;-82
2021/05/30 04:18:22;;;;;;;6.53;4.30;;;11.90;99.90;;;;;;4986979;28;20241;-81
2021/05/30 04:20:49;;;;;;;4.80;4.23;;;11.90;99.90;;;;;;4987188;28;20512;-81
2021/05/30 04:23:16;;;;;;;4.50;4.07;;;11.90;99.90;;;;;;4986745;28;20573;-80
2021/05/30 04:25:42;;;;;;;4.47;4.07;;;11.90;99.90;;;;;;4986724;28;20557;-82
2021/05/30 04:28:08;;;;;;;4.73;4.37;;;11.90;99.90;;;;;;4987137;28;20618;-82
2021/05/30 04:30:34;;;;;;;4.70;4.30;;;12.00;99.90;;;;;;4987286;28;20303;-82
2021/05/30 04:33:02;;;;;;;4.67;4.10;;;12.00;99.90;;;;;;4987116;28;20241;-83
2021/05/30 04:35:28;;;;;;;4.50;3.90;;;12.00;99.90;;;;;;4987131;28;20692;-82
2021/05/30 04:37:54;;;;;;;4.57;3.90;;;12.00;99.90;;;;;;4987033;28;20218;-82
2021/05/30 04:40:23;;;;;;;5.53;4.00;;;11.90;99.90;;;;;;4987226;28;20209;-83
2021/05/30 04:42:50;;;;;;;7.73;3.90;;;11.90;99.90;;;;;;4986861;28;20210;-82
2021/05/30 04:45:17;;;;;;;3.37;3.00;;;11.80;99.90;;;;;;4987351;28;20198;-81
2021/05/30 04:47:43;;;;;;;3.13;2.93;;;11.90;99.90;;;;;;4987084;28;20214;-82
2021/05/30 04:50:12;;;;;;;3.03;2.80;;;11.90;99.90;;;;;;4987051;28;20214;-82
2021/05/30 04:52:39;;;;;;;3.47;3.17;;;12.00;99.90;;;;;;4987051;28;20234;-82
2021/05/30 04:55:07;;;;;;;6.13;3.00;;;12.10;99.90;;;;;;4987585;28;20206;-83
2021/05/30 04:57:33;;;;;;;5.23;2.80;;;12.20;99.90;;;;;;4986834;28;20217;-82
2021/05/30 04:59:59;;;;;;;3.30;3.10;;;12.30;99.90;;;;;;4986289;28;20206;-81
2021/05/30 05:02:26;;;;;;;3.87;2.97;;;12.30;99.90;;;;;;4986891;28;20254;-79
2021/05/30 05:04:52;;;;;;;10.23;3.47;;;12.40;99.90;;;;;;4996953;28;20214;-80
2021/05/30 05:07:19;;;;;;;2.77;2.57;;;12.40;99.90;;;;;;5037554;28;20666;-79
2021/05/30 05:09:45;;;;;;;3.30;3.00;;;12.50;99.90;;;;;;5028961;28;20210;-79
2021/05/30 05:12:12;;;;;;;2.70;2.50;;;12.50;99.90;;;;;;5016664;28;20708;-80
2021/05/30 05:14:41;;;;;;;3.40;2.70;;;12.60;99.90;;;;;;5076399;28;20234;-80
2021/05/30 05:17:08;;;;;;;3.07;2.37;;;12.60;99.90;;;;;;5032873;28;20695;-80
2021/05/30 05:19:34;;;;;;;2.47;2.30;;;12.60;99.90;;;;;;5030330;28;20591;-79
2021/05/30 05:22:00;;;;;;;3.00;2.80;;;12.70;99.90;;;;;;5021964;28;20287;-80
2021/05/30 05:24:27;;;;;;;2.60;2.37;;;12.70;99.90;;;;;;5011094;28;20244;-79
2021/05/30 05:26:53;;;;;;;2.73;2.30;;;12.70;99.90;;;;;;5024783;28;20212;-80
2021/05/30 05:29:20;;;;;;;3.13;2.30;;;12.70;99.90;;;;;;5020401;28;20212;-80
2021/05/30 05:31:46;;;;;;;2.50;2.30;;;12.70;99.90;;;;;;5028824;28;20240;-78
2021/05/30 05:34:12;;;;;;;2.70;2.47;;;12.70;99.90;;;;;;5014332;28;20257;-79
2021/05/30 05:36:38;;;;;;;2.40;2.20;;;12.80;99.90;;;;;;5052049;28;20294;-78
2021/05/30 05:39:05;;;;;;;3.50;2.30;;;12.90;99.90;;;;;;5028732;28;20217;-79
2021/05/30 05:41:32;;;;;;;2.90;2.07;;;12.90;99.90;;;;;;5033971;28;20601;-78
2021/05/30 05:43:58;;;;;;;2.57;2.37;;;12.90;99.90;;;;;;5028163;28;20248;-78
2021/05/30 05:46:24;;;;;;;3.00;2.53;;;13.00;99.90;;;;;;5027231;27;20236;-78
2021/05/30 05:48:51;;;;;;;2.10;2.00;;;12.90;99.90;;;;;;5027454;28;20204;-78
2021/05/30 05:51:17;;;;;;;3.60;2.63;;;13.00;99.90;;;;;;5027364;28;20209;-78
2021/05/30 05:53:43;;;;;;;3.43;2.60;;;13.00;99.90;;;;;;5027235;28;20229;-78
2021/05/30 05:56:09;;;;;;;3.20;2.40;;;13.00;99.90;;;;;;5027175;28;20213;-78
2021/05/30 05:58:36;;;;;;;3.03;2.40;;;13.10;99.90;;;;;;5027485;28;20243;-79
2021/05/30 06:01:02;;;;;;;2.77;2.27;;;13.20;99.90;;;;;;5028210;28;20690;-78
2021/05/30 06:03:29;;;;;;;2.40;2.20;;;13.20;99.90;;;;;;5027873;28;20549;-79
2021/05/30 06:05:56;;;;;;;2.40;2.20;;;13.20;99.90;;;;;;5028214;28;20205;-78
2021/05/30 06:08:22;;;;;;;2.40;2.20;;;13.30;99.90;;;;;;5028045;27;20291;-78
2021/05/30 06:10:48;;;;;;;2.80;2.60;;;13.30;99.90;;;;;;5027912;28;20741;-78
2021/05/30 06:13:15;;;;;;;2.30;2.10;;;13.40;99.90;;;;;;5027647;28;20763;-78
2021/05/30 06:15:42;;;;;;;2.40;2.17;;;13.40;99.90;;;;;;5027266;28;20213;-78
2021/05/30 06:18:11;;;;;;;3.00;2.20;;;13.40;99.90;;;;;;5027958;28;20209;-78
2021/05/30 06:20:38;;;;;;;2.53;2.20;;;13.50;99.90;;;;;;5027980;28;20208;-78
2021/05/30 06:23:05;;;;;;;2.57;2.37;;;13.50;99.90;;;;;;5027888;28;20217;-78
2021/05/30 06:25:32;;;;;;;2.60;2.40;;;13.50;99.90;;;;;;5027870;28;20579;-78
2021/05/30 06:27:58;;;;;;;2.63;2.30;;;13.50;99.90;;;;;;5027769;28;20205;-78
2021/05/30 06:30:25;;;;;;;3.63;1.90;;;13.60;99.90;;;;;;5027608;28;20209;-78
2021/05/30 06:32:53;;;;;;;2.83;2.30;;;13.60;99.90;;;;;;5027756;28;20251;-78
2021/05/30 06:35:19;;;;;;;2.07;1.97;;;13.60;99.90;;;;;;5027640;28;20316;-78
2021/05/30 06:37:45;;;;;;;3.10;2.50;;;13.70;99.90;;;;;;5027821;28;20611;-78
2021/05/30 06:40:12;;;;;;;2.33;2.13;;;13.70;99.90;;;;;;5027865;28;20216;-79
2021/05/30 06:42:38;;;;;;;2.03;1.90;;;13.70;99.90;;;;;;5027668;28;20273;-78
2021/05/30 06:45:06;;;;;;;3.30;2.00;;;13.80;99.90;;;;;;5026952;28;20272;-78
2021/05/30 06:47:32;;;;;;;3.47;2.07;;;13.80;99.90;;;;;;5027526;28;20238;-78
2021/05/30 06:49:59;;;;;;;4.13;1.90;;;13.90;99.90;;;;;;5027365;28;20264;-78
2021/05/30 06:52:25;;;;;;;2.50;2.30;;;13.90;99.90;;;;;;5026700;28;20780;-78
2021/05/30 06:54:51;;;;;;;2.53;1.97;;;13.90;99.90;;;;;;5027543;28;20205;-78
2021/05/30 06:57:18;;;;;;;2.27;1.90;;;14.00;99.90;;;;;;5027389;28;20704;-78
2021/05/30 06:59:44;;;;;;;4.17;2.20;;;14.00;99.90;;;;;;5027676;28;20578;-79
2021/05/30 07:02:11;;;;;;;2.70;1.97;;;14.00;99.90;;;;;;5026902;27;20216;-78
2021/05/30 07:04:39;;;;;;;2.33;2.13;;;14.10;99.90;;;;;;5027016;28;20577;-78
2021/05/30 07:07:06;;;;;;;1.87;1.60;;;14.10;99.90;;;;;;5026947;28;20679;-78
2021/05/30 07:09:32;;;;;;;2.90;1.70;;;14.10;99.90;;;;;;5027254;28;20201;-78
2021/05/30 07:11:58;;;;;;;4.17;1.90;;;14.10;99.90;;;;;;5027061;28;20229;-78
2021/05/30 07:14:24;;;;;;;1.90;1.70;;;14.20;99.90;;;;;;5026957;28;20224;-78
2021/05/30 07:16:53;;;;;;;3.47;1.70;;;14.20;99.90;;;;;;5027226;28;20236;-79
2021/05/30 07:19:19;;;;;;;2.23;1.97;;;14.30;99.90;;;;;;5026923;28;20212;-78
2021/05/30 07:21:45;;;;;;;2.30;2.10;;;14.30;99.90;;;;;;5027168;28;20209;-78
2021/05/30 07:24:13;;;;;;;1.80;1.70;;;14.40;99.90;;;;;;5027161;28;20205;-78
2021/05/30 07:26:41;;;;;;;3.57;1.90;;;14.40;99.90;;;;;;5025864;28;20212;-79
2021/05/30 07:29:07;;;;;;;4.77;1.50;;;14.40;99.90;;;;;;5027083;28;20208;-78
2021/05/30 07:31:33;;;;;;;3.23;1.60;;;14.30;99.90;;;;;;5027441;28;20644;-79
2021/05/30 07:34:00;;;;;;;2.27;1.90;;;14.50;99.90;;;;;;5026627;28;20282;-78
2021/05/30 07:36:28;;;;;;;2.20;1.50;;;14.60;99.90;;;;;;5026800;28;20229;-79
2021/05/30 07:38:55;;;;;;;2.73;2.03;;;14.60;99.90;;;;;;5026607;28;20217;-79
2021/05/30 07:41:22;;;;;;;3.00;1.80;;;14.70;99.90;;;;;;5026843;28;20208;-79
2021/05/30 07:43:48;;;;;;;2.10;1.90;;;14.70;99.90;;;;;;5026424;28;20247;-78
2021/05/30 07:46:15;;;;;;;2.03;1.83;;;14.80;99.90;;;;;;5026440;28;20217;-78
2021/05/30 07:48:41;;;;;;;2.97;1.93;;;14.80;99.90;;;;;;5026711;28;20212;-78
2021/05/30 07:51:07;;;;;;;1.97;1.87;;;14.90;99.80;;;;;;5026428;28;20205;-78
2021/05/30 07:53:33;;;;;;;2.73;1.90;;;15.00;99.90;;;;;;5026626;28;20224;-78
2021/05/30 07:56:02;;;;;;;1.70;1.60;;;15.00;99.80;;;;;;5026564;28;20216;-78
2021/05/30 07:58:29;;;;;;;2.37;1.90;;;15.10;99.90;;;;;;5026168;28;20205;-79
2021/05/30 08:00:55;;;;;;;1.83;1.73;;;15.10;99.90;;;;;;5026342;28;20212;-79
2021/05/30 08:03:22;;;;;;;4.80;2.10;;;15.10;99.90;;;;;;5026239;28;20233;-79
2021/05/30 08:05:48;;;;;;;2.50;1.63;;;15.20;99.70;;;;;;5026464;28;20228;-79
2021/05/30 08:08:14;;;;;;;4.03;1.57;;;15.20;98.70;;;;;;5026110;28;20227;-79
2021/05/30 08:10:41;;;;;;;6.07;1.80;;;15.30;98.90;;;;;;5026073;28;20241;-79
2021/05/30 08:13:07;;;;;;;2.97;1.90;;;15.30;98.90;;;;;;5025887;28;20586;-78
2021/05/30 08:15:34;;;;;;;2.80;2.00;;;15.30;98.40;;;;;;5026005;28;20223;-79
2021/05/30 08:18:01;;;;;;;2.57;1.50;;;15.40;98.60;;;;;;5025773;28;20732;-79
2021/05/30 08:20:28;;;;;;;4.63;2.30;;;15.40;98.90;;;;;;5026341;28;20205;-79
2021/05/30 08:22:55;;;;;;;2.40;2.20;;;15.50;99.00;;;;;;5026081;28;20205;-79
2021/05/30 08:25:21;;;;;;;2.70;1.70;;;15.60;98.90;;;;;;5025717;28;20209;-78
2021/05/30 08:27:49;;;;;;;3.07;1.60;;;15.60;98.80;;;;;;5026275;28;20220;-79
2021/05/30 08:30:17;;;;;;;3.50;1.90;;;15.60;98.40;;;;;;5025805;28;20204;-79
2021/05/30 08:32:46;;;;;;;2.17;1.80;;;15.70;98.50;;;;;;5025727;28;20298;-79
2021/05/30 08:35:13;;;;;;;2.10;1.70;;;15.70;98.30;;;;;;5025885;28;20236;-79
2021/05/30 08:37:43;;;;;;;1.80;1.70;;;15.80;98.80;;;;;;5025363;28;20236;-79
2021/05/30 08:40:11;;;;;;;3.50;1.90;;;15.90;98.20;;;;;;5026269;28;20207;-79
2021/05/30 08:42:37;;;;;;;3.77;1.70;;;15.90;98.70;;;;;;5025561;28;20659;-79
2021/05/30 08:45:04;;;;;;;1.90;1.80;;;16.00;99.80;;;;;;5009501;27;21601;-79
2021/05/30 08:47:30;;;;;;;2.33;1.90;;;16.00;99.70;;;;;;5010685;28;20206;-82
2021/05/30 08:49:57;;;;;;;2.97;2.37;;;16.00;99.00;;;;;;5022431;28;20209;-82
2021/05/30 08:52:23;;;;;;;2.57;1.87;;;16.20;99.90;;;;;;5009348;28;20605;-79
2021/05/30 08:54:50;;;;;;;2.30;1.70;;;16.30;99.40;;;;;;5011346;28;20217;-78
2021/05/30 08:57:19;;;;;;;1.93;1.70;;;16.40;98.70;;;;;;5003332;28;20206;-78
2021/05/30 08:59:53;;;;;;;3.50;2.10;;;16.50;99.30;;;;;;5004581;28;20213;-79
2021/05/30 09:02:21;;;;;;;1.80;1.70;;;16.60;98.30;;;;;;5000555;28;20473;-79
2021/05/30 09:04:52;;;;;;;2.20;1.90;;;16.60;97.80;;;;;;4995859;28;20663;-78
2021/05/30 09:07:38;;;;;;;1.90;1.70;;;16.70;97.90;;;;;;4984400;28;20206;-78
2021/05/30 09:10:09;;;;;;;3.73;1.93;;;16.70;98.30;;;;;;4983816;28;20198;-80
2021/05/30 09:12:38;;;;;;;2.23;2.00;;;16.70;98.50;;;;;;4984169;28;20257;-79
2021/05/30 09:15:09;;;;;;;2.23;1.80;;;16.80;97.90;;;;;;4984098;28;20210;-79
2021/05/30 09:17:36;;;;;;;3.70;1.60;;;16.80;96.60;;;;;;4984072;28;20258;-79
2021/05/30 09:20:05;;;;;;;2.30;1.77;;;16.90;97.90;;;;;;4983988;28;20214;-79
2021/05/30 09:22:43;;;;;;;2.27;1.70;;;17.10;97.00;;;;;;4984230;28;20217;-79
2021/05/30 09:25:20;;;;;;;1.90;1.80;;;17.10;97.50;;;;;;4994173;28;20206;-78
2021/05/30 09:27:49;;;;;;;3.00;1.90;;;17.10;97.50;;;;;;4985615;28;20229;-78
2021/05/30 09:30:24;;;;;;;2.50;1.80;;;17.20;96.80;;;;;;4984910;28;20213;-78
2021/05/30 09:33:03;;;;;;;6.47;2.13;;;17.30;96.70;;;;;;4985504;28;20578;-78
2021/05/30 09:35:52;;;;;;;9.30;2.03;;;17.30;96.60;;;;;;4985858;28;20222;-79
2021/05/30 09:38:22;;;;;;;4.87;1.90;;;17.50;96.90;;;;;;4985510;28;20660;-79
2021/05/30 09:40:50;;;;;;;4.63;1.90;;;17.60;96.40;;;;;;4986121;28;20206;-78
2021/05/30 09:43:17;;;;;;;2.87;2.00;;;17.70;96.30;;;;;;4985317;28;20712;-78
2021/05/30 09:46:00;;;;;;;2.00;1.60;;;17.70;96.30;;;;;;4985880;28;20206;-78
2021/05/30 09:48:27;;;;;;;1.70;1.60;;;17.80;96.20;;;;;;4985885;28;20205;-78
2021/05/30 09:51:04;;;;;;;2.30;1.90;;;17.80;95.90;;;;;;4988211;28;20205;-79
2021/05/30 09:53:33;;;;;;;2.30;1.83;;;17.90;95.80;;;;;;4989205;28;20222;-78
2021/05/30 09:55:59;;;;;;;3.63;1.57;;;18.00;96.40;;;;;;4988788;28;20667;-78
2021/05/30 09:58:25;;;;;;;2.13;1.90;;;18.10;95.90;;;;;;4988991;28;20218;-79
2021/05/30 10:01:00;;;;;;;2.27;1.73;;;18.20;95.70;;;;;;4988867;28;20343;-79
2021/05/30 10:03:27;;;;;;;2.10;1.97;;;18.30;95.90;;;;;;4988624;28;20221;-78
2021/05/30 10:05:53;;;;;;;1.70;1.60;;;18.50;95.30;;;;;;4988766;28;20206;-79
2021/05/30 10:08:20;;;;;;;2.10;1.90;;;18.50;94.90;;;;;;4988660;28;20214;-78
2021/05/30 10:10:49;;;;;;;1.83;1.73;;;18.60;95.50;;;;;;4988808;28;20553;-78
2021/05/30 10:13:16;;;;;;;2.07;1.87;;;18.70;94.60;;;;;;4988220;28;20237;-78
2021/05/30 10:15:43;;;;;;;5.97;2.07;;;18.70;95.00;;;;;;4988496;28;20569;-78
2021/05/30 10:18:14;;;;;;;2.73;1.77;;;18.70;94.60;;;;;;4988482;28;20621;-78
2021/05/30 10:20:40;;;;;;;1.90;1.67;;;18.80;94.30;;;;;;4988919;28;20198;-78
2021/05/30 10:23:09;;;;;;;2.50;1.60;;;18.90;94.40;;;;;;4988622;28;20237;-78
2021/05/30 10:25:40;;;;;;;2.83;1.67;;;19.00;93.40;;;;;;4988792;28;20577;-78
2021/05/30 10:28:08;;;;;;;2.43;1.70;;;19.10;94.00;;;;;;4988299;28;20553;-78
2021/05/30 10:30:34;;;;;;;1.80;1.70;;;19.20;93.70;;;;;;4988516;28;20209;-78
2021/05/30 10:33:13;;;;;;;4.40;2.00;;;19.30;93.30;;;;;;4988774;28;20336;-78
2021/05/30 10:35:40;;;;;;;2.10;1.90;;;19.40;93.10;;;;;;4988576;28;20226;-77
2021/05/30 10:38:06;;;;;;;5.60;2.00;;;19.50;93.80;;;;;;4988007;28;20661;-78
2021/05/30 10:40:35;;;;;;;7.90;2.10;;;19.70;93.60;;;;;;4988101;28;20664;-78
2021/05/30 10:43:22;;;;;;;2.50;1.70;;;19.80;92.80;;;;;;4986917;28;20203;-78
2021/05/30 10:46:03;;;;;;;1.97;1.60;;;19.90;93.00;;;;;;4986598;28;20198;-78
2021/05/30 10:48:29;;;;;;;1.83;1.67;;;20.00;92.60;;;;;;4986969;28;20198;-78
2021/05/30 10:51:29;;;;;;;2.10;1.63;;;20.10;92.10;;;;;;4987863;28;20214;-78
2021/05/30 10:54:10;;;;;;;4.93;2.13;;;20.20;93.20;;;;;;4988201;28;20572;-78
2021/05/30 10:56:39;;;;;;;3.23;1.80;;;20.40;92.40;;;;;;4988243;28;20293;-78
2021/05/30 10:59:25;;;;;;;3.13;2.00;;;20.60;92.10;;;;;;4987587;28;20214;-78
2021/05/30 11:01:52;;;;;;;3.40;1.60;;;20.70;92.00;;;;;;4990429;28;20206;-78
2021/05/30 11:04:37;;;;;;;2.17;1.83;;;20.90;92.40;;;;;;4988072;28;20213;-76
2021/05/30 11:07:06;;;;;;;3.90;1.70;;;21.00;91.20;;;;;;4987755;28;20569;-78
2021/05/30 11:10:09;;;;;;;3.90;1.90;;;21.10;91.00;;;;;;4987778;28;20576;-78
2021/05/30 11:12:47;;;;;;;7.07;2.23;;;21.20;90.90;;;;;;4987447;28;20256;-77
2021/05/30 11:15:29;;;;;;;2.33;1.97;;;21.20;90.80;;;;;;4987749;28;20198;-78
2021/05/30 11:17:56;;;;;;;3.00;2.00;;;21.20;91.40;;;;;;4987829;28;20624;-78
2021/05/30 11:20:24;;;;;;;2.67;1.97;;;21.30;91.80;;;;;;4987376;28;20224;-77
2021/05/30 11:22:52;;;;;;;6.82;2.03;;;21.60;92.10;;;;;;4992890;28;20668;-78
2021/05/30 11:25:21;;;;;;;8.13;2.10;;;21.60;91.20;;;;;;5006954;28;20202;-77
2021/05/30 11:27:50;;;;;;;3.20;1.70;;;21.70;91.50;;;;;;5007705;28;20221;-77
2021/05/30 11:30:39;;;;;;;2.45;1.75;;;21.90;90.60;;;;;;5006769;28;20678;-79
2021/05/30 11:33:06;;;;;;;2.10;2.00;;;22.10;90.00;;;;;;5006952;28;20231;-77
2021/05/30 11:35:33;;;;;;;13.83;3.87;;;22.20;89.30;;;;;;5006570;28;20226;-77
2021/05/30 11:37:59;;;;;;;1.90;1.80;;;22.30;89.10;;;;;;5007115;28;20547;-77
2021/05/30 11:40:26;;;;;;;7.20;2.25;;;22.50;88.60;;;;;;5006835;28;20209;-77
2021/05/30 11:42:53;;;;;;;1.95;1.80;;;22.70;87.20;;;;;;5006652;28;20213;-77
2021/05/30 11:45:33;;;;;;;2.10;2.00;;;23.00;88.10;;;;;;5006956;28;20266;-78
2021/05/30 11:48:05;;;;;;;2.97;1.77;;;22.90;83.40;;;;;;5006915;28;20204;-79
2021/05/30 11:50:42;;;;;;;4.93;2.03;;;22.80;84.00;;;;;;5006797;28;20209;-79
2021/05/30 11:53:25;;;;;;;2.53;2.00;;;22.70;85.80;;;;;;5006707;28;20388;-79
2021/05/30 11:56:02;;;;;;;2.42;1.90;;;22.80;86.30;;;;;;5006690;28;20195;-79
2021/05/30 11:58:28;;;;;;;2.33;1.70;;;22.60;84.00;;;;;;5006668;28;20197;-79
2021/05/30 12:00:56;;;;;;;2.25;1.90;;;22.30;85.20;;;;;;5006779;28;20210;-78
2021/05/30 12:03:23;;;;;;;2.05;1.92;;;22.10;85.30;;;;;;5006482;28;20213;-78
2021/05/30 12:05:57;;;;;;;2.20;2.10;;;22.10;86.70;;;;;;5006275;28;20217;-79
2021/05/30 12:08:23;;;;;;;2.93;1.73;;;22.00;86.70;;;;;;5006498;28;20229;-78
2021/05/30 12:10:55;;;;;;;3.70;2.00;;;22.10;84.70;;;;;;5006350;28;20283;-78
2021/05/30 12:13:29;;;;;;;2.55;2.15;;;22.20;85.00;;;;;;5005375;28;20232;-78
2021/05/30 12:15:57;;;;;;;4.63;2.03;;;22.40;85.90;;;;;;5006606;28;20215;-78
2021/05/30 12:18:26;;;;;;;2.72;2.00;;;22.60;85.60;;;;;;5006291;28;20201;-78
2021/05/30 12:20:58;;;;;;;5.05;2.33;;;23.00;85.70;;;;;;5006533;28;20707;-78
2021/05/30 12:23:25;;;;;;;2.38;1.80;;;23.30;84.70;;;;;;5006424;28;20194;-77
2021/05/30 12:25:53;;;;;;;2.13;1.92;;;23.60;84.40;;;;;;5006411;28;20205;-78
2021/05/30 12:28:20;;;;;;;3.92;1.70;;;23.60;82.30;;;;;;5006319;28;20205;-78
2021/05/30 12:30:51;;;;;;;2.00;1.80;;;23.40;80.90;;;;;;5006193;28;20209;-79
2021/05/30 12:33:17;;;;;;;3.22;1.85;;;23.10;81.10;;;;;;5006241;28;20226;-78
2021/05/30 12:35:47;;;;;;;2.38;2.17;;;23.10;82.50;;;;;;5006182;28;20230;-79
2021/05/30 12:38:15;;;;;;;2.28;2.10;;;23.30;81.40;;;;;;5005831;28;20591;-78
2021/05/30 12:40:43;;;;;;;15.82;2.38;;;23.50;82.90;;;;;;5005932;28;20579;-78
2021/05/30 12:43:09;;;;;;;2.00;1.90;;;23.80;79.70;;;;;;5006239;28;20285;-78
2021/05/30 12:45:36;;;;;;;1.80;1.60;;;23.90;78.70;;;;;;5005675;28;20300;-78
2021/05/30 12:48:02;;;;;;;5.07;2.30;;;23.70;78.60;;;;;;5006209;28;20381;-78
2021/05/30 12:50:40;;;;;;;2.58;2.05;;;23.40;79.60;;;;;;5007136;28;20572;-78
2021/05/30 12:53:07;;;;;;;6.25;2.05;;;23.20;80.70;;;;;;5005489;28;20231;-78